Time;durP1;ratioP1;P1;durP2;ratioP2;P2;SDS_P1;SDS_P2;PMS_P1;PMS_P2;Temp;Humidity;BMP_temperature;BMP_pressure;BME280_temperature;BME280_humidity;BME280_pressure;Samples;Min_cycle;Max_cycle;Signal;HPM_P1;HPM_P2
2022/11/02 00:01:38;;;;;;;8.82;4.43;;;;;;;;;;6294161;22;20011;-77
2022/11/02 00:04:04;;;;;;;12.10;4.20;;;;;;;;;;6307875;22;20117;-76
2022/11/02 00:06:30;;;;;;;8.18;4.63;;;;;;;;;;6226955;22;20053;-76
2022/11/02 00:08:55;;;;;;;6.50;4.53;;;;;;;;;;6277075;22;20011;-75
2022/11/02 00:11:21;;;;;;;5.25;4.72;;;;;;;;;;6276945;22;20015;-77
2022/11/02 00:13:47;;;;;;;6.47;4.30;;;;;;;;;;6276899;22;20467;-77
2022/11/02 00:16:14;;;;;;;7.05;4.10;;;;;;;;;;6277071;22;20014;-75
2022/11/02 00:18:40;;;;;;;6.82;4.05;;;;;;;;;;6277579;22;20021;-75
2022/11/02 00:21:06;;;;;;;5.38;4.75;;;;;;;;;;6276500;22;20083;-76
2022/11/02 00:23:31;;;;;;;4.47;4.00;;;;;;;;;;6277267;22;20019;-75
2022/11/02 00:25:57;;;;;;;4.28;3.53;;;;;;;;;;6276815;22;20018;-77
2022/11/02 00:28:23;;;;;;;7.45;4.50;;;;;;;;;;6304426;22;20023;-75
2022/11/02 00:30:49;;;;;;;6.47;4.03;;;;;;;;;;6226148;22;20034;-76
2022/11/02 00:33:15;;;;;;;4.88;4.22;;;;;;;;;;6304521;22;20071;-75
2022/11/02 00:35:41;;;;;;;6.18;4.22;;;;;;;;;;6277643;22;20562;-76
2022/11/02 00:38:07;;;;;;;5.07;4.10;;;;;;;;;;6304223;22;20395;-74
2022/11/02 00:40:33;;;;;;;4.80;3.78;;;;;;;;;;6304729;22;20021;-75
2022/11/02 00:42:58;;;;;;;4.50;4.10;;;;;;;;;;6250994;22;20020;-75
2022/11/02 00:45:24;;;;;;;8.13;4.10;;;;;;;;;;6304173;22;20015;-75
2022/11/02 00:47:50;;;;;;;5.32;3.78;;;;;;;;;;6275996;22;20011;-76
2022/11/02 00:50:17;;;;;;;4.55;4.10;;;;;;;;;;6276636;22;20015;-74
2022/11/02 00:52:43;;;;;;;6.40;5.05;;;;;;;;;;6304417;22;20015;-76
2022/11/02 00:55:09;;;;;;;5.57;4.07;;;;;;;;;;6250616;22;20069;-74
2022/11/02 00:57:38;;;;;;;4.60;4.20;;;;;;;;;;6251982;22;20011;-75
2022/11/02 01:00:07;;;;;;;4.85;3.75;;;;;;;;;;6251058;22;20023;-75
2022/11/02 01:02:33;;;;;;;7.10;4.50;;;;;;;;;;6276573;22;20015;-74
2022/11/02 01:04:59;;;;;;;6.55;4.10;;;;;;;;;;6276011;22;20023;-74
2022/11/02 01:07:26;;;;;;;6.30;4.47;;;;;;;;;;6304135;22;20519;-73
2022/11/02 01:09:51;;;;;;;8.82;4.68;;;;;;;;;;6303144;22;20011;-75
2022/11/02 01:12:17;;;;;;;7.57;4.18;;;;;;;;;;6304262;22;20012;-74
2022/11/02 01:14:47;;;;;;;8.38;4.40;;;;;;;;;;6305874;22;20015;-75
2022/11/02 01:17:13;;;;;;;5.72;4.60;;;;;;;;;;6279411;22;20046;-75
2022/11/02 01:19:40;;;;;;;7.15;4.47;;;;;;;;;;6276938;22;20045;-74
2022/11/02 01:22:06;;;;;;;6.70;3.60;;;;;;;;;;6225536;22;20015;-76
2022/11/02 01:24:33;;;;;;;13.73;4.50;;;;;;;;;;6251077;22;20019;-75
2022/11/02 01:26:59;;;;;;;8.82;4.65;;;;;;;;;;6276295;22;20022;-75
2022/11/02 01:29:25;;;;;;;9.35;4.68;;;;;;;;;;6250669;22;20068;-74
2022/11/02 01:31:52;;;;;;;4.55;3.95;;;;;;;;;;6302960;22;20090;-74
2022/11/02 01:34:19;;;;;;;8.23;4.53;;;;;;;;;;6276635;22;20011;-76
2022/11/02 01:36:48;;;;;;;5.90;5.20;;;;;;;;;;6276029;22;20035;-75
2022/11/02 01:39:16;;;;;;;6.32;3.88;;;;;;;;;;6276106;22;20447;-77
2022/11/02 01:41:41;;;;;;;6.78;4.30;;;;;;;;;;6275736;22;20011;-75
2022/11/02 01:44:24;;;;;;;4.82;4.00;;;;;;;;;;6302662;22;20474;-75
2022/11/02 01:46:50;;;;;;;3.95;3.65;;;;;;;;;;6250287;22;20172;-76
2022/11/02 01:49:17;;;;;;;10.68;4.15;;;;;;;;;;6275868;22;20011;-76
2022/11/02 01:51:44;;;;;;;5.78;4.07;;;;;;;;;;6303508;22;20038;-77
2022/11/02 01:54:11;;;;;;;6.57;4.47;;;;;;;;;;6276050;22;20017;-74
2022/11/02 01:56:37;;;;;;;5.47;4.72;;;;;;;;;;6250417;22;20023;-75
2022/11/02 01:59:05;;;;;;;5.10;4.60;;;;;;;;;;6249823;22;20027;-76
2022/11/02 02:01:32;;;;;;;6.28;4.22;;;;;;;;;;6275800;22;20034;-75
2022/11/02 02:03:58;;;;;;;10.10;4.47;;;;;;;;;;6275909;22;20026;-76
2022/11/02 02:06:25;;;;;;;7.20;3.97;;;;;;;;;;6250586;22;20022;-76
2022/11/02 02:08:51;;;;;;;5.05;4.38;;;;;;;;;;6276324;22;20047;-75
2022/11/02 02:11:23;;;;;;;6.97;4.00;;;;;;;;;;6276405;22;20034;-75
2022/11/02 02:13:50;;;;;;;4.40;3.97;;;;;;;;;;6276454;22;20090;-76
2022/11/02 02:16:40;;;;;;;9.75;4.72;;;;;;;;;;6259144;22;20053;-74
2022/11/02 02:19:15;;;;;;;5.15;4.60;;;;;;;;;;6275292;22;20015;-73
2022/11/02 02:21:47;;;;;;;12.30;4.57;;;;;;;;;;6275657;22;20046;-74
2022/11/02 02:24:14;;;;;;;5.13;4.60;;;;;;;;;;6250389;22;20099;-76
2022/11/02 02:26:58;;;;;;;6.43;4.43;;;;;;;;;;6303297;22;20440;-76
2022/11/02 02:29:44;;;;;;;7.18;4.40;;;;;;;;;;6285082;22;20022;-74
2022/11/02 02:32:30;;;;;;;4.35;3.95;;;;;;;;;;6300530;22;19995;-74
2022/11/02 02:34:59;;;;;;;4.30;4.00;;;;;;;;;;6283675;22;20015;-75
2022/11/02 02:37:26;;;;;;;7.82;4.30;;;;;;;;;;6284413;22;20223;-75
2022/11/02 02:40:03;;;;;;;4.85;4.30;;;;;;;;;;6276893;22;20011;-76
2022/11/02 02:42:35;;;;;;;4.82;4.10;;;;;;;;;;6276219;22;20045;-76
2022/11/02 02:45:16;;;;;;;5.72;4.35;;;;;;;;;;6250852;22;20025;-75
2022/11/02 02:47:44;;;;;;;8.88;4.03;;;;;;;;;;6276063;22;20355;-74
2022/11/02 02:50:17;;;;;;;4.90;4.45;;;;;;;;;;6275264;22;20015;-75
2022/11/02 02:52:44;;;;;;;6.65;4.45;;;;;;;;;;6250236;22;20106;-74
2022/11/02 02:55:13;;;;;;;5.55;4.22;;;;;;;;;;6224619;22;20094;-76
2022/11/02 02:57:39;;;;;;;4.78;4.30;;;;;;;;;;6224929;22;20014;-75
2022/11/02 03:00:11;;;;;;;5.45;4.38;;;;;;;;;;6274751;22;20114;-75
2022/11/02 03:02:39;;;;;;;6.07;4.28;;;;;;;;;;6250985;22;20035;-74
2022/11/02 03:05:21;;;;;;;6.78;4.50;;;;;;;;;;6249319;22;20371;-74
2022/11/02 03:07:47;;;;;;;5.20;4.75;;;;;;;;;;6275328;22;20011;-76
2022/11/02 03:10:20;;;;;;;8.85;5.90;;;;;;;;;;6302368;22;20030;-75
2022/11/02 03:13:05;;;;;;;8.15;5.40;;;;;;;;;;6250323;22;20068;-74
2022/11/02 03:15:37;;;;;;;8.05;5.10;;;;;;;;;;6302734;22;20015;-76
2022/11/02 03:18:03;;;;;;;6.50;4.43;;;;;;;;;;6275080;22;20011;-75
2022/11/02 03:20:34;;;;;;;6.75;5.03;;;;;;;;;;6275183;22;20011;-74
2022/11/02 03:23:03;;;;;;;6.72;4.45;;;;;;;;;;6278549;22;20209;-75
2022/11/02 03:25:33;;;;;;;7.50;5.13;;;;;;;;;;6292560;22;20019;-74
2022/11/02 03:28:10;;;;;;;8.07;5.18;;;;;;;;;;6291684;22;20007;-75
2022/11/02 03:30:48;;;;;;;7.40;6.10;;;;;;;;;;6250616;22;20011;-75
2022/11/02 03:33:19;;;;;;;5.43;4.93;;;;;;;;;;6224075;22;20011;-74
2022/11/02 03:35:51;;;;;;;8.77;5.43;;;;;;;;;;6302417;22;20363;-74
2022/11/02 03:38:22;;;;;;;5.57;5.03;;;;;;;;;;6302210;22;20741;-75
2022/11/02 03:40:49;;;;;;;7.10;5.10;;;;;;;;;;6249393;22;20008;-75
2022/11/02 03:43:15;;;;;;;6.50;4.88;;;;;;;;;;6247772;22;20007;-74
2022/11/02 03:45:42;;;;;;;6.85;5.75;;;;;;;;;;6273473;22;20011;-75
2022/11/02 03:48:10;;;;;;;6.60;5.97;;;;;;;;;;6300894;22;20049;-74
2022/11/02 03:50:36;;;;;;;6.18;5.28;;;;;;;;;;6273865;22;20067;-74
2022/11/02 03:53:08;;;;;;;9.98;5.45;;;;;;;;;;6274536;22;20007;-75
2022/11/02 03:55:38;;;;;;;5.47;4.70;;;;;;;;;;6302440;22;20071;-74
2022/11/02 03:58:04;;;;;;;17.25;5.68;;;;;;;;;;6249351;22;20068;-74
2022/11/02 04:00:33;;;;;;;6.78;4.82;;;;;;;;;;6274374;22;20023;-75
2022/11/02 04:03:05;;;;;;;12.80;5.40;;;;;;;;;;6249567;22;20031;-74
2022/11/02 04:05:34;;;;;;;5.70;4.78;;;;;;;;;;6224842;22;20018;-77
2022/11/02 04:08:23;;;;;;;6.82;5.15;;;;;;;;;;6250756;22;20014;-75
2022/11/02 04:16:34;;;;;;;15.00;7.80;;;;;;;;;;6249243;22;20026;-76
2022/11/02 04:27:23;;;;;;;11.60;6.15;;;;;;;;;;6254685;22;20018;-77
2022/11/02 04:29:50;;;;;;;14.05;9.13;;;;;;;;;;6225974;22;20058;-77
2022/11/02 04:35:03;;;;;;;15.30;8.90;;;;;;;;;;6303567;22;20011;-77
2022/11/02 04:40:14;;;;;;;17.75;8.50;;;;;;;;;;6303253;22;20323;-77
2022/11/02 04:42:44;;;;;;;11.43;8.23;;;;;;;;;;6276472;22;20472;-77
2022/11/02 04:45:10;;;;;;;11.73;8.38;;;;;;;;;;6200237;22;20054;-77
2022/11/02 04:47:36;;;;;;;10.27;7.57;;;;;;;;;;6275941;22;20012;-76
2022/11/02 04:50:03;;;;;;;11.73;8.32;;;;;;;;;;6250753;22;20134;-76
2022/11/02 04:52:29;;;;;;;17.63;9.57;;;;;;;;;;6303398;22;20011;-76
2022/11/02 04:54:55;;;;;;;15.20;8.65;;;;;;;;;;6250714;22;20401;-75
2022/11/02 04:57:21;;;;;;;12.80;8.68;;;;;;;;;;6275421;22;20558;-76
2022/11/02 04:59:48;;;;;;;8.98;7.60;;;;;;;;;;6250439;22;20325;-76
2022/11/02 05:02:14;;;;;;;11.25;7.53;;;;;;;;;;6275818;22;20093;-75
2022/11/02 05:04:41;;;;;;;15.75;8.93;;;;;;;;;;6251239;22;20029;-77
2022/11/02 05:07:08;;;;;;;8.82;7.88;;;;;;;;;;6304266;22;20043;-76
2022/11/02 05:09:35;;;;;;;8.60;7.75;;;;;;;;;;6276317;22;20049;-77
2022/11/02 05:12:04;;;;;;;10.20;7.68;;;;;;;;;;6276292;22;20011;-77
2022/11/02 05:14:30;;;;;;;11.55;8.25;;;;;;;;;;6252290;22;20019;-76
2022/11/02 05:16:57;;;;;;;17.27;8.25;;;;;;;;;;6259656;22;20041;-76
2022/11/02 05:19:23;;;;;;;8.82;7.85;;;;;;;;;;6289498;22;20011;-78
2022/11/02 05:21:49;;;;;;;10.95;7.32;;;;;;;;;;6239861;22;20018;-76
2022/11/02 05:24:17;;;;;;;10.50;6.72;;;;;;;;;;6290638;22;20067;-77
2022/11/02 05:26:42;;;;;;;11.50;7.68;;;;;;;;;;6285283;22;20010;-78
2022/11/02 05:29:08;;;;;;;14.27;9.07;;;;;;;;;;6284941;22;20102;-77
2022/11/02 05:31:34;;;;;;;15.85;11.35;;;;;;;;;;6280316;22;20007;-77
2022/11/02 05:34:00;;;;;;;10.65;8.95;;;;;;;;;;6224954;22;20019;-77
2022/11/02 05:36:27;;;;;;;14.45;11.35;;;;;;;;;;6303877;22;20444;-76
2022/11/02 05:38:53;;;;;;;7.97;7.18;;;;;;;;;;6278052;22;20042;-77
2022/11/02 05:41:20;;;;;;;14.15;11.43;;;;;;;;;;6276702;22;20017;-77
2022/11/02 05:43:47;;;;;;;11.88;10.65;;;;;;;;;;6276754;22;20051;-77
2022/11/02 05:46:15;;;;;;;16.08;12.70;;;;;;;;;;6275036;22;20038;-73
2022/11/02 05:48:40;;;;;;;13.90;11.80;;;;;;;;;;6303158;22;20011;-73
2022/11/02 05:51:06;;;;;;;20.27;12.63;;;;;;;;;;6249392;22;20015;-73
2022/11/02 05:53:36;;;;;;;25.20;18.10;;;;;;;;;;6275504;22;20443;-73
2022/11/02 05:56:02;;;;;;;19.17;12.75;;;;;;;;;;6275822;22;20011;-74
2022/11/02 05:58:28;;;;;;;17.30;13.55;;;;;;;;;;6302569;22;20479;-74
2022/11/02 06:00:57;;;;;;;20.48;14.10;;;;;;;;;;6251012;22;20065;-73
2022/11/02 06:03:23;;;;;;;22.17;10.85;;;;;;;;;;6249426;22;20015;-74
2022/11/02 06:05:54;;;;;;;18.48;12.48;;;;;;;;;;6297359;22;20087;-75
2022/11/02 06:08:20;;;;;;;17.17;10.93;;;;;;;;;;6301092;22;20008;-75
2022/11/02 06:10:47;;;;;;;18.42;12.20;;;;;;;;;;6301371;22;20022;-74
2022/11/02 06:13:13;;;;;;;19.50;14.57;;;;;;;;;;6301491;22;20011;-75
2022/11/02 06:15:39;;;;;;;17.60;13.90;;;;;;;;;;6274224;22;20026;-74
2022/11/02 06:18:05;;;;;;;18.02;14.93;;;;;;;;;;6274216;22;20014;-75
2022/11/02 06:20:31;;;;;;;19.85;15.77;;;;;;;;;;6275297;22;20094;-74
2022/11/02 06:22:58;;;;;;;23.60;18.35;;;;;;;;;;6246793;22;20039;-75
2022/11/02 06:25:23;;;;;;;24.05;15.15;;;;;;;;;;6246904;22;20031;-72
2022/11/02 06:27:53;;;;;;;19.35;14.00;;;;;;;;;;6273220;22;20022;-74
2022/11/02 06:30:20;;;;;;;21.42;15.32;;;;;;;;;;6222319;22;20038;-73
2022/11/02 06:32:50;;;;;;;22.75;15.73;;;;;;;;;;6301252;22;20478;-73
2022/11/02 06:35:16;;;;;;;19.77;16.30;;;;;;;;;;6301488;22;20090;-73
2022/11/02 06:37:43;;;;;;;17.75;13.48;;;;;;;;;;6274662;22;20015;-74
2022/11/02 06:40:10;;;;;;;18.30;13.43;;;;;;;;;;6273891;22;20023;-74
2022/11/02 06:42:36;;;;;;;20.58;16.50;;;;;;;;;;6273590;22;20072;-74
2022/11/02 06:45:02;;;;;;;20.83;15.30;;;;;;;;;;6247769;22;20038;-73
2022/11/02 06:47:31;;;;;;;17.00;13.30;;;;;;;;;;6300693;22;20057;-73
2022/11/02 06:49:57;;;;;;;17.65;14.13;;;;;;;;;;6248860;22;20041;-73
2022/11/02 06:52:23;;;;;;;19.90;15.43;;;;;;;;;;6300847;22;20011;-74
2022/11/02 06:54:49;;;;;;;22.33;13.45;;;;;;;;;;6301769;22;20015;-74
2022/11/02 06:57:14;;;;;;;19.83;15.43;;;;;;;;;;6249104;22;20022;-73
2022/11/02 06:59:40;;;;;;;24.15;15.32;;;;;;;;;;6277921;22;20023;-74
2022/11/02 07:02:07;;;;;;;19.05;15.73;;;;;;;;;;6306473;22;20037;-72
2022/11/02 07:04:33;;;;;;;19.83;14.73;;;;;;;;;;6305898;22;20019;-74
2022/11/02 07:06:59;;;;;;;18.10;13.88;;;;;;;;;;6305192;22;20043;-73
2022/11/02 07:09:24;;;;;;;19.38;14.73;;;;;;;;;;6277763;22;20026;-75
2022/11/02 07:11:50;;;;;;;15.30;12.80;;;;;;;;;;6275632;22;20737;-74
2022/11/02 07:14:17;;;;;;;22.55;14.80;;;;;;;;;;6302795;22;20470;-73
2022/11/02 07:16:42;;;;;;;19.65;15.02;;;;;;;;;;6254546;22;20037;-74
2022/11/02 07:19:08;;;;;;;19.05;14.10;;;;;;;;;;6314809;22;20011;-73
2022/11/02 07:21:34;;;;;;;9.10;8.15;;;;;;;;;;6310827;22;20007;-73
2022/11/02 07:24:00;;;;;;;17.33;13.70;;;;;;;;;;6301940;22;20510;-73
2022/11/02 07:26:26;;;;;;;19.85;13.90;;;;;;;;;;6300458;22;20436;-73
2022/11/02 07:28:52;;;;;;;25.63;15.80;;;;;;;;;;6300710;22;20466;-74
2022/11/02 07:31:17;;;;;;;21.60;14.57;;;;;;;;;;6247606;22;20014;-73
2022/11/02 07:33:43;;;;;;;23.95;13.77;;;;;;;;;;6273247;22;20027;-73
2022/11/02 07:36:10;;;;;;;19.60;13.27;;;;;;;;;;6299969;22;20082;-73
2022/11/02 07:38:36;;;;;;;15.65;12.38;;;;;;;;;;6248952;22;20011;-74
2022/11/02 07:41:02;;;;;;;14.77;10.75;;;;;;;;;;6247565;22;20359;-73
2022/11/02 07:43:28;;;;;;;17.55;12.90;;;;;;;;;;6301530;22;20431;-75
2022/11/02 07:46:14;;;;;;;16.10;10.88;;;;;;;;;;6301185;22;20645;-74
2022/11/02 07:48:39;;;;;;;17.33;11.40;;;;;;;;;;6273865;22;20007;-75
2022/11/02 07:51:10;;;;;;;12.18;10.73;;;;;;;;;;6273461;22;20058;-74
2022/11/02 07:53:36;;;;;;;23.25;12.30;;;;;;;;;;6300918;22;20011;-75
2022/11/02 07:56:02;;;;;;;21.17;11.40;;;;;;;;;;6300556;22;20034;-73
2022/11/02 07:58:28;;;;;;;19.42;13.38;;;;;;;;;;6274983;22;20012;-73
2022/11/02 08:00:58;;;;;;;16.80;13.82;;;;;;;;;;6301555;22;20022;-74
2022/11/02 08:03:24;;;;;;;20.98;13.60;;;;;;;;;;6301580;22;20014;-74
2022/11/02 08:05:50;;;;;;;25.27;15.68;;;;;;;;;;6302443;22;20015;-75
2022/11/02 08:08:19;;;;;;;23.55;15.93;;;;;;;;;;6302410;22;20011;-73
2022/11/02 08:10:46;;;;;;;18.52;14.07;;;;;;;;;;6276631;22;20011;-74
2022/11/02 08:13:12;;;;;;;27.50;16.23;;;;;;;;;;6303381;22;20011;-75
2022/11/02 08:15:39;;;;;;;34.67;18.10;;;;;;;;;;6303871;22;20039;-75
2022/11/02 08:18:05;;;;;;;22.30;13.40;;;;;;;;;;6304768;22;20451;-73
2022/11/02 08:20:31;;;;;;;20.23;14.85;;;;;;;;;;6305090;22;20011;-74
2022/11/02 08:22:57;;;;;;;15.80;13.20;;;;;;;;;;6278578;22;20011;-74
2022/11/02 08:25:23;;;;;;;16.45;12.70;;;;;;;;;;6305645;22;20399;-75
2022/11/02 08:27:49;;;;;;;16.50;11.90;;;;;;;;;;6277921;22;20572;-74
2022/11/02 08:30:15;;;;;;;16.63;12.82;;;;;;;;;;6277204;22;20410;-74
2022/11/02 08:32:40;;;;;;;19.02;15.05;;;;;;;;;;6279012;22;20014;-74
2022/11/02 08:35:06;;;;;;;16.60;13.20;;;;;;;;;;6308966;22;20660;-74
2022/11/02 08:37:32;;;;;;;18.13;14.25;;;;;;;;;;6318240;22;20017;-73
2022/11/02 08:39:58;;;;;;;19.38;15.88;;;;;;;;;;6318904;22;20011;-74
2022/11/02 08:42:24;;;;;;;12.02;10.30;;;;;;;;;;6316989;22;20015;-73
2022/11/02 08:44:50;;;;;;;16.80;13.25;;;;;;;;;;6285483;22;20057;-73
2022/11/02 08:47:17;;;;;;;17.27;14.35;;;;;;;;;;6309800;22;20232;-74
2022/11/02 08:49:43;;;;;;;19.77;15.05;;;;;;;;;;6284770;22;20026;-74
2022/11/02 08:52:09;;;;;;;15.48;13.77;;;;;;;;;;6278139;22;20098;-73
2022/11/02 08:54:35;;;;;;;14.98;12.27;;;;;;;;;;6303818;22;20470;-74
2022/11/02 08:57:00;;;;;;;22.30;14.90;;;;;;;;;;6303453;22;20003;-74
2022/11/02 08:59:27;;;;;;;17.13;15.10;;;;;;;;;;6303209;22;20379;-73
2022/11/02 09:01:53;;;;;;;19.50;12.73;;;;;;;;;;6303850;22;20014;-73
2022/11/02 09:04:19;;;;;;;21.48;13.15;;;;;;;;;;6303427;22;20030;-73
2022/11/02 09:06:45;;;;;;;14.70;12.80;;;;;;;;;;6276602;22;20010;-75
2022/11/02 09:09:10;;;;;;;15.00;13.13;;;;;;;;;;6304372;22;20129;-74
2022/11/02 09:11:36;;;;;;;15.20;11.20;;;;;;;;;;6303178;22;20011;-73
2022/11/02 09:14:02;;;;;;;15.07;13.50;;;;;;;;;;6250147;22;20018;-74
2022/11/02 09:16:28;;;;;;;13.07;10.32;;;;;;;;;;6302665;22;20007;-74
2022/11/02 09:18:54;;;;;;;9.75;8.80;;;;;;;;;;6275699;22;20732;-74
2022/11/02 09:21:20;;;;;;;13.85;11.85;;;;;;;;;;6275406;22;20042;-75
2022/11/02 09:23:48;;;;;;;20.33;12.75;;;;;;;;;;6303383;22;20443;-74
2022/11/02 09:26:14;;;;;;;13.13;10.18;;;;;;;;;;6302679;22;20018;-74
2022/11/02 09:28:40;;;;;;;16.50;12.52;;;;;;;;;;6303066;22;20011;-74
2022/11/02 09:31:06;;;;;;;12.95;10.82;;;;;;;;;;6302564;22;20058;-74
2022/11/02 09:33:33;;;;;;;14.95;12.48;;;;;;;;;;6302626;22;20011;-74
2022/11/02 09:36:03;;;;;;;14.55;12.80;;;;;;;;;;6250239;22;20136;-73
2022/11/02 09:38:29;;;;;;;15.70;12.93;;;;;;;;;;6275690;22;20030;-74
2022/11/02 09:40:55;;;;;;;14.40;11.73;;;;;;;;;;6303398;22;20165;-75
2022/11/02 09:43:24;;;;;;;16.80;13.45;;;;;;;;;;6302512;22;20553;-74
2022/11/02 09:45:52;;;;;;;19.95;13.43;;;;;;;;;;6303425;22;20011;-74
2022/11/02 09:48:19;;;;;;;19.33;14.48;;;;;;;;;;6302724;22;20447;-74
2022/11/02 09:50:47;;;;;;;20.75;11.45;;;;;;;;;;6276088;22;20027;-74
2022/11/02 09:53:16;;;;;;;16.75;10.98;;;;;;;;;;6275551;22;20019;-74
2022/11/02 09:55:44;;;;;;;23.60;12.75;;;;;;;;;;6250336;22;20011;-74
2022/11/02 09:58:11;;;;;;;17.08;13.20;;;;;;;;;;6301538;22;20008;-75
2022/11/02 10:00:38;;;;;;;16.05;12.68;;;;;;;;;;6273953;22;20441;-75
2022/11/02 10:03:23;;;;;;;19.45;11.40;;;;;;;;;;6303033;22;20007;-74
2022/11/02 10:05:58;;;;;;;20.38;13.35;;;;;;;;;;6302672;22;20023;-74
2022/11/02 10:08:33;;;;;;;10.02;8.45;;;;;;;;;;6274957;22;20007;-72
2022/11/02 10:11:11;;;;;;;14.77;11.32;;;;;;;;;;6275789;22;20015;-74
2022/11/02 10:13:49;;;;;;;13.57;12.18;;;;;;;;;;6302362;22;20034;-74
2022/11/02 10:16:20;;;;;;;17.42;10.65;;;;;;;;;;6276881;22;20090;-75
2022/11/02 10:18:48;;;;;;;18.25;14.15;;;;;;;;;;6277596;22;20011;-76
2022/11/02 10:21:20;;;;;;;19.70;11.57;;;;;;;;;;6276518;22;20046;-74
2022/11/02 10:23:49;;;;;;;15.77;10.88;;;;;;;;;;6302708;22;20367;-74
2022/11/02 10:26:20;;;;;;;17.17;11.40;;;;;;;;;;6275328;22;20046;-74
2022/11/02 10:28:48;;;;;;;19.27;13.05;;;;;;;;;;6275329;22;20110;-74
2022/11/02 10:31:24;;;;;;;16.85;12.75;;;;;;;;;;6303308;22;20068;-74
2022/11/02 10:33:51;;;;;;;16.52;12.63;;;;;;;;;;6277891;22;20516;-75
2022/11/02 10:36:20;;;;;;;10.38;9.10;;;;;;;;;;6250897;22;20011;-75
2022/11/02 10:38:52;;;;;;;12.80;11.50;;;;;;;;;;6304762;22;20474;-75
2022/11/02 10:41:21;;;;;;;12.13;10.50;;;;;;;;;;6304168;22;20007;-75
2022/11/02 10:43:53;;;;;;;17.30;11.73;;;;;;;;;;6285607;22;20399;-75
2022/11/02 10:46:37;;;;;;;13.35;9.65;;;;;;;;;;6323419;22;20061;-74
2022/11/02 10:49:21;;;;;;;15.93;11.13;;;;;;;;;;6318708;22;20007;-75
2022/11/02 10:51:48;;;;;;;11.80;10.70;;;;;;;;;;6287914;22;20015;-74
2022/11/02 10:54:14;;;;;;;10.18;8.45;;;;;;;;;;6282246;22;20015;-75
2022/11/02 10:56:40;;;;;;;11.63;10.07;;;;;;;;;;6306221;22;20018;-75
2022/11/02 10:59:15;;;;;;;10.88;8.82;;;;;;;;;;6305176;22;20050;-76
2022/11/02 11:02:05;;;;;;;14.90;8.55;;;;;;;;;;6304908;22;20018;-75
2022/11/02 11:04:31;;;;;;;8.90;6.28;;;;;;;;;;6264163;22;20054;-75
2022/11/02 11:07:02;;;;;;;12.32;10.25;;;;;;;;;;6275271;22;20018;-75
2022/11/02 11:09:29;;;;;;;12.45;10.48;;;;;;;;;;6301898;22;20015;-74
2022/11/02 11:11:56;;;;;;;10.40;8.52;;;;;;;;;;6274590;22;20028;-75
2022/11/02 11:14:22;;;;;;;10.25;8.90;;;;;;;;;;6274389;22;20455;-74
2022/11/02 11:16:52;;;;;;;10.68;9.02;;;;;;;;;;6250006;22;20011;-75
2022/11/02 11:19:19;;;;;;;7.53;6.90;;;;;;;;;;6275144;22;20474;-74
2022/11/02 11:21:45;;;;;;;13.25;10.93;;;;;;;;;;6274768;22;20007;-74
2022/11/02 11:24:24;;;;;;;13.00;9.70;;;;;;;;;;6249195;22;20015;-75
2022/11/02 11:27:14;;;;;;;13.65;12.05;;;;;;;;;;6302270;22;20093;-75
2022/11/02 11:29:40;;;;;;;11.15;8.93;;;;;;;;;;6285962;22;20019;-73
2022/11/02 11:32:23;;;;;;;10.90;9.65;;;;;;;;;;6275675;22;20054;-73
2022/11/02 11:34:56;;;;;;;11.38;8.73;;;;;;;;;;6276764;22;20098;-73
2022/11/02 11:37:21;;;;;;;10.10;9.00;;;;;;;;;;6278473;22;20011;-73
2022/11/02 11:39:49;;;;;;;7.85;6.55;;;;;;;;;;6253460;22;20011;-74
2022/11/02 11:42:19;;;;;;;23.73;13.23;;;;;;;;;;6277541;22;20010;-74
2022/11/02 11:44:46;;;;;;;12.32;8.57;;;;;;;;;;6277076;22;20049;-73
2022/11/02 11:47:11;;;;;;;16.63;11.55;;;;;;;;;;6276947;22;20086;-73
2022/11/02 11:49:39;;;;;;;10.18;8.77;;;;;;;;;;6277172;22;20037;-74
2022/11/02 11:52:05;;;;;;;12.40;10.43;;;;;;;;;;6303877;22;20011;-74
2022/11/02 11:54:32;;;;;;;18.90;11.82;;;;;;;;;;6249023;22;20336;-74
2022/11/02 11:56:58;;;;;;;11.00;9.82;;;;;;;;;;6276182;22;20015;-74
2022/11/02 11:59:24;;;;;;;11.55;7.78;;;;;;;;;;6229843;22;20034;-75
2022/11/02 12:01:55;;;;;;;14.50;11.70;;;;;;;;;;6278738;22;20007;-75
2022/11/02 12:04:27;;;;;;;10.70;9.15;;;;;;;;;;6276473;22;20459;-75
2022/11/02 12:06:53;;;;;;;9.13;8.25;;;;;;;;;;6304152;22;20018;-75
2022/11/02 12:09:24;;;;;;;8.30;6.90;;;;;;;;;;6303946;22;20011;-75
2022/11/02 12:11:56;;;;;;;12.88;8.75;;;;;;;;;;6304052;22;20033;-75
2022/11/02 12:14:26;;;;;;;13.57;10.55;;;;;;;;;;6276461;22;20529;-75
2022/11/02 12:17:05;;;;;;;13.60;12.02;;;;;;;;;;6276394;22;20011;-75
2022/11/02 12:19:49;;;;;;;19.27;11.30;;;;;;;;;;6304041;22;20011;-75
2022/11/02 12:22:33;;;;;;;11.20;9.95;;;;;;;;;;6304212;22;20015;-74
2022/11/02 12:25:08;;;;;;;11.98;8.63;;;;;;;;;;6276589;22;20543;-75
2022/11/02 12:27:53;;;;;;;13.00;7.32;;;;;;;;;;6250494;22;20011;-74
2022/11/02 12:30:19;;;;;;;11.57;10.23;;;;;;;;;;6303736;22;20440;-74
2022/11/02 12:32:53;;;;;;;11.77;8.75;;;;;;;;;;6303412;22;20014;-76
2022/11/02 12:35:36;;;;;;;11.10;8.30;;;;;;;;;;6275770;22;20007;-74
2022/11/02 12:38:03;;;;;;;14.85;10.52;;;;;;;;;;6304027;22;20018;-76
2022/11/02 12:40:37;;;;;;;11.35;9.63;;;;;;;;;;6303120;22;20007;-74
2022/11/02 12:43:12;;;;;;;8.45;7.70;;;;;;;;;;6302279;22;20475;-75
2022/11/02 12:45:50;;;;;;;15.82;8.73;;;;;;;;;;6302469;22;20042;-74
2022/11/02 12:48:34;;;;;;;10.43;7.57;;;;;;;;;;6274703;22;20011;-74
2022/11/02 12:51:11;;;;;;;23.90;8.45;;;;;;;;;;6275264;22;20022;-74
2022/11/02 12:53:49;;;;;;;8.55;7.68;;;;;;;;;;6246717;22;20011;-75
2022/11/02 12:56:19;;;;;;;9.63;7.63;;;;;;;;;;6274720;22;20015;-75
2022/11/02 12:58:45;;;;;;;10.93;7.43;;;;;;;;;;6273685;22;20023;-75
2022/11/02 13:01:18;;;;;;;16.92;9.70;;;;;;;;;;6274581;22;20031;-75
2022/11/02 13:03:48;;;;;;;14.30;6.97;;;;;;;;;;6303481;22;20019;-74
2022/11/02 13:06:15;;;;;;;8.20;7.43;;;;;;;;;;6303756;22;20008;-74
2022/11/02 13:08:52;;;;;;;11.23;9.40;;;;;;;;;;6276167;22;20011;-75
2022/11/02 13:11:21;;;;;;;9.48;7.45;;;;;;;;;;6226183;22;20035;-74
2022/11/02 13:13:51;;;;;;;7.00;6.40;;;;;;;;;;6250394;22;20325;-74
2022/11/02 13:16:17;;;;;;;11.27;8.32;;;;;;;;;;6303670;22;20011;-75
2022/11/02 13:18:45;;;;;;;9.00;7.90;;;;;;;;;;6275384;22;20018;-73
2022/11/02 13:21:11;;;;;;;9.98;6.95;;;;;;;;;;6275885;22;20017;-73
2022/11/02 13:23:39;;;;;;;12.27;7.05;;;;;;;;;;6275248;22;20011;-75
2022/11/02 13:26:18;;;;;;;12.02;8.75;;;;;;;;;;6303361;22;20046;-74
2022/11/02 13:28:46;;;;;;;8.73;7.68;;;;;;;;;;6300427;22;20018;-75
2022/11/02 13:31:38;;;;;;;9.05;8.15;;;;;;;;;;6303211;22;20321;-75
2022/11/02 13:34:05;;;;;;;9.57;7.15;;;;;;;;;;6297000;22;20022;-74
2022/11/02 13:36:30;;;;;;;8.98;6.55;;;;;;;;;;6246286;22;20034;-74
2022/11/02 13:39:04;;;;;;;6.95;6.35;;;;;;;;;;6275578;22;20388;-75
2022/11/02 13:41:31;;;;;;;9.25;8.25;;;;;;;;;;6250028;22;20018;-74
2022/11/02 13:44:15;;;;;;;9.43;7.28;;;;;;;;;;6275642;22;20030;-75
2022/11/02 13:46:44;;;;;;;8.35;6.95;;;;;;;;;;6302537;22;20014;-75
2022/11/02 13:49:20;;;;;;;9.93;8.63;;;;;;;;;;6279810;22;20102;-74
2022/11/02 13:51:57;;;;;;;7.70;6.40;;;;;;;;;;6302778;22;20037;-75
2022/11/02 13:54:38;;;;;;;25.48;9.18;;;;;;;;;;6301989;22;20011;-75
2022/11/02 13:57:04;;;;;;;6.32;5.72;;;;;;;;;;6302832;22;20019;-75
2022/11/02 13:59:39;;;;;;;14.93;7.80;;;;;;;;;;6274992;22;20031;-75
2022/11/02 14:02:05;;;;;;;11.18;7.70;;;;;;;;;;6275585;22;20090;-75
2022/11/02 14:04:38;;;;;;;8.93;6.30;;;;;;;;;;6275253;22;20593;-74
2022/11/02 14:07:05;;;;;;;7.53;4.95;;;;;;;;;;6274614;22;20015;-75
2022/11/02 14:09:38;;;;;;;7.93;5.90;;;;;;;;;;6274891;22;20019;-74
2022/11/02 14:12:20;;;;;;;7.18;6.47;;;;;;;;;;6275121;22;20007;-74
2022/11/02 14:15:07;;;;;;;9.80;6.80;;;;;;;;;;6274947;22;20039;-75
2022/11/02 14:17:51;;;;;;;8.93;6.60;;;;;;;;;;6239633;22;20015;-75
2022/11/02 14:20:35;;;;;;;14.23;7.85;;;;;;;;;;6302342;22;20520;-76
2022/11/02 14:23:08;;;;;;;9.27;7.13;;;;;;;;;;6302639;22;20398;-75
2022/11/02 14:25:49;;;;;;;6.38;5.78;;;;;;;;;;6302147;22;20089;-75
2022/11/02 14:28:21;;;;;;;7.60;5.63;;;;;;;;;;6302360;22;20077;-75
2022/11/02 14:30:48;;;;;;;9.68;7.35;;;;;;;;;;6302031;22;20015;-74
2022/11/02 14:33:32;;;;;;;7.60;6.82;;;;;;;;;;6274802;22;20471;-75
2022/11/02 14:36:09;;;;;;;12.35;7.35;;;;;;;;;;6302172;22;20094;-75
2022/11/02 14:38:38;;;;;;;15.48;10.18;;;;;;;;;;6301870;22;20478;-76
2022/11/02 14:41:22;;;;;;;8.48;7.65;;;;;;;;;;6249725;22;20007;-75
2022/11/02 14:43:48;;;;;;;13.00;7.85;;;;;;;;;;6248932;22;20026;-75
2022/11/02 14:46:32;;;;;;;9.50;7.13;;;;;;;;;;6302827;22;20007;-75
2022/11/02 14:48:59;;;;;;;15.90;8.55;;;;;;;;;;6302846;22;20018;-76
2022/11/02 14:51:35;;;;;;;9.55;5.70;;;;;;;;;;6275791;22;20015;-75
2022/11/02 14:54:17;;;;;;;9.82;8.23;;;;;;;;;;6276310;22;20599;-76
2022/11/02 14:56:50;;;;;;;9.15;8.25;;;;;;;;;;6302119;22;20538;-76
2022/11/02 14:59:24;;;;;;;16.27;11.40;;;;;;;;;;6274912;22;20136;-76
2022/11/02 15:01:58;;;;;;;11.63;8.10;;;;;;;;;;6274773;22;20462;-75
2022/11/02 15:04:24;;;;;;;11.40;8.73;;;;;;;;;;6274573;22;20023;-75